Michigan, North Dakota
Current Conditions -  °F | °C
As of 9:19 PM on Thursday 27 Nov 2014 (Local Time) from KRDR Reporting Station
Light Snow Light Snow  
Wind Chill: -9°   Ceiling: 3700
Heat Index:   Visibility: 3mi
Dew Point:   Wind: 13mph
Humidity: 85%   Direction: 180°S
Pressure: 30.14"   Gusts: NA
Location:  48.02°N, 98.12°W
Report Text: KRDR 280319Z AUTO 18011KT 3SM R35/4000FT -SN BKN037 OVC085 M14/M16 A3014 RMK AO2 SNE0301B0304
Loading
Personal Weather Stations






























Interactive Weather Map New forecast layout! Learn more

10-Day Weather Forecast

Advertisements
Track Severe Weather on mobile